sensor_id;sensor_type;location;lat;lon;timestamp;P1;durP1;ratioP1;P2;durP2;ratioP2
6436;SDS011;3251;53.550;9.918;2023-11-21T06:45:34;20.80;;;10.37;;
6436;SDS011;3251;53.550;9.918;2023-11-21T06:48:00;13.60;;;9.40;;
6436;SDS011;3251;53.550;9.918;2023-11-21T06:50:29;9.87;;;8.50;;
6436;SDS011;3251;53.550;9.918;2023-11-21T06:52:55;14.57;;;9.30;;
6436;SDS011;3251;53.550;9.918;2023-11-21T06:55:21;10.90;;;8.97;;
6436;SDS011;3251;53.550;9.918;2023-11-21T06:57:47;14.40;;;8.93;;
6436;SDS011;3251;53.550;9.918;2023-11-21T07:00:14;17.17;;;9.00;;
6436;SDS011;3251;53.550;9.918;2023-11-21T07:02:41;13.00;;;8.87;;
6436;SDS011;3251;53.550;9.918;2023-11-21T07:05:07;17.67;;;9.70;;
6436;SDS011;3251;53.550;9.918;2023-11-21T07:07:33;14.97;;;8.80;;
6436;SDS011;3251;53.550;9.918;2023-11-21T07:10:01;17.10;;;10.23;;
6436;SDS011;3251;53.550;9.918;2023-11-21T07:12:28;10.77;;;9.07;;
6436;SDS011;3251;53.550;9.918;2023-11-21T07:14:56;14.03;;;8.50;;
6436;SDS011;3251;53.550;9.918;2023-11-21T07:17:22;15.03;;;9.97;;
6436;SDS011;3251;53.550;9.918;2023-11-21T07:19:49;15.50;;;8.83;;
6436;SDS011;3251;53.550;9.918;2023-11-21T07:22:16;14.23;;;8.80;;
6436;SDS011;3251;53.550;9.918;2023-11-21T07:24:49;16.93;;;9.27;;
6436;SDS011;3251;53.550;9.918;2023-11-21T07:27:18;15.30;;;8.60;;
6436;SDS011;3251;53.550;9.918;2023-11-21T07:29:44;12.87;;;7.60;;
6436;SDS011;3251;53.550;9.918;2023-11-21T07:32:12;13.30;;;8.27;;
6436;SDS011;3251;53.550;9.918;2023-11-21T07:34:40;17.37;;;8.73;;
6436;SDS011;3251;53.550;9.918;2023-11-21T07:37:09;13.20;;;8.23;;
6436;SDS011;3251;53.550;9.918;2023-11-21T07:39:35;14.93;;;7.67;;
6436;SDS011;3251;53.550;9.918;2023-11-21T07:42:01;12.20;;;7.20;;
6436;SDS011;3251;53.550;9.918;2023-11-21T07:44:28;13.77;;;7.30;;
6436;SDS011;3251;53.550;9.918;2023-11-21T07:46:54;12.80;;;8.70;;
6436;SDS011;3251;53.550;9.918;2023-11-21T07:49:24;12.03;;;8.33;;
6436;SDS011;3251;53.550;9.918;2023-11-21T07:51:51;14.80;;;9.00;;
6436;SDS011;3251;53.550;9.918;2023-11-21T07:54:18;9.40;;;7.57;;
6436;SDS011;3251;53.550;9.918;2023-11-21T07:56:44;11.57;;;9.30;;
6436;SDS011;3251;53.550;9.918;2023-11-21T07:59:10;13.00;;;8.53;;
6436;SDS011;3251;53.550;9.918;2023-11-21T08:01:37;17.10;;;8.37;;
6436;SDS011;3251;53.550;9.918;2023-11-21T08:04:05;22.60;;;7.90;;
6436;SDS011;3251;53.550;9.918;2023-11-21T08:06:32;13.27;;;8.13;;
6436;SDS011;3251;53.550;9.918;2023-11-21T08:08:58;12.13;;;6.97;;
6436;SDS011;3251;53.550;9.918;2023-11-21T08:11:24;9.90;;;8.23;;
6436;SDS011;3251;53.550;9.918;2023-11-21T08:13:51;9.97;;;6.83;;
6436;SDS011;3251;53.550;9.918;2023-11-21T08:16:18;10.17;;;7.53;;
6436;SDS011;3251;53.550;9.918;2023-11-21T08:18:44;11.90;;;6.80;;
6436;SDS011;3251;53.550;9.918;2023-11-21T08:21:12;9.30;;;5.87;;
6436;SDS011;3251;53.550;9.918;2023-11-21T08:23:38;7.93;;;6.80;;
6436;SDS011;3251;53.550;9.918;2023-11-21T08:26:04;6.33;;;5.30;;
6436;SDS011;3251;53.550;9.918;2023-11-21T08:28:31;10.43;;;6.30;;
6436;SDS011;3251;53.550;9.918;2023-11-21T08:30:57;9.47;;;6.67;;
6436;SDS011;3251;53.550;9.918;2023-11-21T08:33:24;8.97;;;5.73;;
6436;SDS011;3251;53.550;9.918;2023-11-21T08:35:50;11.37;;;6.90;;
6436;SDS011;3251;53.550;9.918;2023-11-21T08:38:16;7.97;;;4.80;;
6436;SDS011;3251;53.550;9.918;2023-11-21T08:40:43;8.00;;;6.10;;
6436;SDS011;3251;53.550;9.918;2023-11-21T08:43:09;11.03;;;6.13;;
6436;SDS011;3251;53.550;9.918;2023-11-21T08:45:37;6.40;;;5.50;;
6436;SDS011;3251;53.550;9.918;2023-11-21T08:48:03;12.30;;;6.67;;
6436;SDS011;3251;53.550;9.918;2023-11-21T08:50:30;7.83;;;6.60;;
6436;SDS011;3251;53.550;9.918;2023-11-21T08:52:56;8.40;;;5.07;;
6436;SDS011;3251;53.550;9.918;2023-11-21T08:55:22;10.93;;;5.40;;
6436;SDS011;3251;53.550;9.918;2023-11-21T08:57:49;7.47;;;5.50;;
6436;SDS011;3251;53.550;9.918;2023-11-21T09:00:16;4.43;;;4.03;;
6436;SDS011;3251;53.550;9.918;2023-11-21T09:02:42;26.93;;;5.03;;
6436;SDS011;3251;53.550;9.918;2023-11-21T09:05:09;5.10;;;4.40;;
6436;SDS011;3251;53.550;9.918;2023-11-21T09:07:35;16.33;;;4.53;;
6436;SDS011;3251;53.550;9.918;2023-11-21T09:10:05;4.00;;;3.80;;
6436;SDS011;3251;53.550;9.918;2023-11-21T09:12:36;5.13;;;3.63;;
6436;SDS011;3251;53.550;9.918;2023-11-21T09:15:03;8.67;;;4.37;;
6436;SDS011;3251;53.550;9.918;2023-11-21T09:17:30;9.20;;;5.00;;
6436;SDS011;3251;53.550;9.918;2023-11-21T09:19:56;7.23;;;5.00;;
6436;SDS011;3251;53.550;9.918;2023-11-21T09:22:23;12.00;;;3.70;;
6436;SDS011;3251;53.550;9.918;2023-11-21T09:24:54;5.43;;;4.97;;
6436;SDS011;3251;53.550;9.918;2023-11-21T09:27:22;5.70;;;5.20;;
6436;SDS011;3251;53.550;9.918;2023-11-21T09:29:50;6.13;;;5.43;;
6436;SDS011;3251;53.550;9.918;2023-11-21T09:32:20;10.90;;;5.13;;
6436;SDS011;3251;53.550;9.918;2023-11-21T09:34:48;10.27;;;5.73;;
6436;SDS011;3251;53.550;9.918;2023-11-21T09:37:14;16.40;;;5.47;;
6436;SDS011;3251;53.550;9.918;2023-11-21T09:39:40;5.40;;;4.90;;
6436;SDS011;3251;53.550;9.918;2023-11-21T09:42:12;8.53;;;5.27;;
6436;SDS011;3251;53.550;9.918;2023-11-21T09:44:45;9.70;;;4.87;;
6436;SDS011;3251;53.550;9.918;2023-11-21T09:47:14;4.83;;;4.40;;
6436;SDS011;3251;53.550;9.918;2023-11-21T09:49:42;5.03;;;4.57;;
6436;SDS011;3251;53.550;9.918;2023-11-21T09:52:08;5.30;;;4.00;;
6436;SDS011;3251;53.550;9.918;2023-11-21T09:54:35;8.03;;;4.60;;
6436;SDS011;3251;53.550;9.918;2023-11-21T09:57:01;5.40;;;4.60;;
6436;SDS011;3251;53.550;9.918;2023-11-21T09:59:29;3.70;;;3.37;;
6436;SDS011;3251;53.550;9.918;2023-11-21T10:02:01;4.03;;;3.83;;
6436;SDS011;3251;53.550;9.918;2023-11-21T10:04:27;7.73;;;4.23;;
6436;SDS011;3251;53.550;9.918;2023-11-21T10:06:54;5.20;;;2.90;;
6436;SDS011;3251;53.550;9.918;2023-11-21T10:09:20;4.03;;;3.40;;
6436;SDS011;3251;53.550;9.918;2023-11-21T10:11:46;3.63;;;3.33;;
6436;SDS011;3251;53.550;9.918;2023-11-21T10:14:13;4.60;;;3.90;;
6436;SDS011;3251;53.550;9.918;2023-11-21T10:16:40;4.80;;;4.10;;
6436;SDS011;3251;53.550;9.918;2023-11-21T10:19:09;7.63;;;3.10;;
6436;SDS011;3251;53.550;9.918;2023-11-21T10:21:36;3.30;;;3.00;;
6436;SDS011;3251;53.550;9.918;2023-11-21T10:24:03;3.87;;;3.53;;
6436;SDS011;3251;53.550;9.918;2023-11-21T10:26:29;5.13;;;4.13;;
6436;SDS011;3251;53.550;9.918;2023-11-21T10:29:00;5.40;;;4.00;;
6436;SDS011;3251;53.550;9.918;2023-11-21T10:31:30;6.30;;;3.53;;
6436;SDS011;3251;53.550;9.918;2023-11-21T10:34:15;5.93;;;5.43;;
6436;SDS011;3251;53.550;9.918;2023-11-21T10:36:41;7.67;;;3.63;;
6436;SDS011;3251;53.550;9.918;2023-11-21T10:39:08;8.00;;;4.07;;
6436;SDS011;3251;53.550;9.918;2023-11-21T10:41:37;5.70;;;3.70;;
6436;SDS011;3251;53.550;9.918;2023-11-21T10:44:03;3.70;;;2.70;;
6436;SDS011;3251;53.550;9.918;2023-11-21T10:46:32;7.63;;;3.53;;
6436;SDS011;3251;53.550;9.918;2023-11-21T10:48:59;2.57;;;2.33;;
6436;SDS011;3251;53.550;9.918;2023-11-21T10:51:25;8.90;;;3.47;;
6436;SDS011;3251;53.550;9.918;2023-11-21T10:53:52;3.13;;;2.77;;
6436;SDS011;3251;53.550;9.918;2023-11-21T10:56:18;7.47;;;2.87;;
6436;SDS011;3251;53.550;9.918;2023-11-21T10:58:47;3.10;;;2.90;;
6436;SDS011;3251;53.550;9.918;2023-11-21T11:01:14;3.20;;;2.97;;
6436;SDS011;3251;53.550;9.918;2023-11-21T11:03:42;3.87;;;3.33;;
6436;SDS011;3251;53.550;9.918;2023-11-21T11:06:09;6.03;;;3.70;;
6436;SDS011;3251;53.550;9.918;2023-11-21T11:08:37;4.10;;;3.70;;
6436;SDS011;3251;53.550;9.918;2023-11-21T11:11:04;3.27;;;2.80;;
6436;SDS011;3251;53.550;9.918;2023-11-21T11:13:31;3.50;;;2.97;;
6436;SDS011;3251;53.550;9.918;2023-11-21T11:15:58;5.03;;;3.63;;
6436;SDS011;3251;53.550;9.918;2023-11-21T11:18:28;3.80;;;2.80;;
6436;SDS011;3251;53.550;9.918;2023-11-21T11:20:54;7.00;;;3.90;;
6436;SDS011;3251;53.550;9.918;2023-11-21T11:28:35;8.60;;;3.40;;
6436;SDS011;3251;53.550;9.918;2023-11-21T11:33:53;3.53;;;3.07;;
6436;SDS011;3251;53.550;9.918;2023-11-21T11:36:29;3.67;;;3.33;;
6436;SDS011;3251;53.550;9.918;2023-11-21T11:38:57;3.90;;;3.17;;
6436;SDS011;3251;53.550;9.918;2023-11-21T11:41:24;3.87;;;3.57;;
6436;SDS011;3251;53.550;9.918;2023-11-21T11:43:52;3.47;;;2.97;;
6436;SDS011;3251;53.550;9.918;2023-11-21T11:46:18;3.93;;;3.10;;
6436;SDS011;3251;53.550;9.918;2023-11-21T11:48:47;8.73;;;3.63;;
6436;SDS011;3251;53.550;9.918;2023-11-21T11:51:14;7.43;;;3.20;;
6436;SDS011;3251;53.550;9.918;2023-11-21T11:53:45;3.50;;;3.20;;
6436;SDS011;3251;53.550;9.918;2023-11-21T11:58:51;3.00;;;1.80;;
6436;SDS011;3251;53.550;9.918;2023-11-21T12:01:21;3.97;;;3.57;;
6436;SDS011;3251;53.550;9.918;2023-11-21T12:04:33;5.20;;;2.53;;
6436;SDS011;3251;53.550;9.918;2023-11-21T12:06:34;3.20;;;2.90;;
6436;SDS011;3251;53.550;9.918;2023-11-21T12:09:01;5.27;;;3.53;;
6436;SDS011;3251;53.550;9.918;2023-11-21T12:11:30;11.40;;;3.83;;
6436;SDS011;3251;53.550;9.918;2023-11-21T12:13:57;3.33;;;3.10;;
6436;SDS011;3251;53.550;9.918;2023-11-21T12:16:25;3.10;;;2.57;;
6436;SDS011;3251;53.550;9.918;2023-11-21T12:18:54;12.37;;;3.30;;
6436;SDS011;3251;53.550;9.918;2023-11-21T12:21:20;2.70;;;2.40;;
6436;SDS011;3251;53.550;9.918;2023-11-21T12:23:48;4.23;;;3.10;;
6436;SDS011;3251;53.550;9.918;2023-11-21T12:26:16;4.47;;;3.57;;
6436;SDS011;3251;53.550;9.918;2023-11-21T12:28:42;3.63;;;3.43;;
6436;SDS011;3251;53.550;9.918;2023-11-21T12:31:09;3.57;;;3.37;;
6436;SDS011;3251;53.550;9.918;2023-11-21T12:33:36;17.87;;;3.00;;
6436;SDS011;3251;53.550;9.918;2023-11-21T12:36:03;3.40;;;2.83;;
6436;SDS011;3251;53.550;9.918;2023-11-21T12:38:34;3.57;;;3.13;;
6436;SDS011;3251;53.550;9.918;2023-11-21T12:41:00;4.40;;;2.70;;
6436;SDS011;3251;53.550;9.918;2023-11-21T12:43:26;7.43;;;3.60;;
6436;SDS011;3251;53.550;9.918;2023-11-21T12:46:04;2.70;;;2.50;;
6436;SDS011;3251;53.550;9.918;2023-11-21T12:48:31;3.43;;;3.23;;
6436;SDS011;3251;53.550;9.918;2023-11-21T12:50:58;3.30;;;3.10;;
6436;SDS011;3251;53.550;9.918;2023-11-21T12:53:25;7.40;;;3.20;;
6436;SDS011;3251;53.550;9.918;2023-11-21T12:55:55;7.30;;;3.90;;
6436;SDS011;3251;53.550;9.918;2023-11-21T12:58:23;4.53;;;3.30;;
6436;SDS011;3251;53.550;9.918;2023-11-21T13:00:51;4.47;;;4.07;;
6436;SDS011;3251;53.550;9.918;2023-11-21T13:03:19;5.00;;;3.53;;
6436;SDS011;3251;53.550;9.918;2023-11-21T13:05:51;8.90;;;4.33;;
6436;SDS011;3251;53.550;9.918;2023-11-21T13:08:19;5.50;;;3.57;;
6436;SDS011;3251;53.550;9.918;2023-11-21T13:10:48;4.87;;;3.20;;
6436;SDS011;3251;53.550;9.918;2023-11-21T13:13:15;3.17;;;2.87;;
6436;SDS011;3251;53.550;9.918;2023-11-21T13:15:51;9.40;;;3.27;;
6436;SDS011;3251;53.550;9.918;2023-11-21T13:18:19;6.07;;;3.47;;
6436;SDS011;3251;53.550;9.918;2023-11-21T13:20:46;4.40;;;2.40;;
6436;SDS011;3251;53.550;9.918;2023-11-21T13:23:13;3.87;;;3.57;;
6436;SDS011;3251;53.550;9.918;2023-11-21T13:25:41;7.13;;;3.30;;
6436;SDS011;3251;53.550;9.918;2023-11-21T13:28:07;7.90;;;3.00;;
6436;SDS011;3251;53.550;9.918;2023-11-21T13:30:37;4.20;;;3.23;;
6436;SDS011;3251;53.550;9.918;2023-11-21T13:33:05;3.13;;;2.63;;
6436;SDS011;3251;53.550;9.918;2023-11-21T13:35:33;5.90;;;2.70;;
6436;SDS011;3251;53.550;9.918;2023-11-21T13:38:06;3.00;;;2.80;;
6436;SDS011;3251;53.550;9.918;2023-11-21T13:40:33;3.63;;;3.03;;
6436;SDS011;3251;53.550;9.918;2023-11-21T13:43:11;3.90;;;3.60;;
6436;SDS011;3251;53.550;9.918;2023-11-21T13:45:40;5.53;;;2.80;;
6436;SDS011;3251;53.550;9.918;2023-11-21T13:48:07;3.67;;;2.93;;
6436;SDS011;3251;53.550;9.918;2023-11-21T13:50:45;4.07;;;3.67;;
6436;SDS011;3251;53.550;9.918;2023-11-21T13:53:34;3.60;;;2.93;;
6436;SDS011;3251;53.550;9.918;2023-11-21T13:56:03;4.77;;;3.50;;
6436;SDS011;3251;53.550;9.918;2023-11-21T13:58:29;2.63;;;2.30;;
6436;SDS011;3251;53.550;9.918;2023-11-21T14:01:14;3.73;;;3.50;;
6436;SDS011;3251;53.550;9.918;2023-11-21T14:04:04;2.90;;;2.40;;
6436;SDS011;3251;53.550;9.918;2023-11-21T14:06:47;3.10;;;2.80;;
6436;SDS011;3251;53.550;9.918;2023-11-21T14:09:17;3.10;;;2.90;;
6436;SDS011;3251;53.550;9.918;2023-11-21T14:12:00;6.33;;;3.97;;
6436;SDS011;3251;53.550;9.918;2023-11-21T14:14:31;7.50;;;3.60;;
6436;SDS011;3251;53.550;9.918;2023-11-21T14:16:57;3.60;;;3.30;;
6436;SDS011;3251;53.550;9.918;2023-11-21T14:19:24;3.07;;;2.77;;
6436;SDS011;3251;53.550;9.918;2023-11-21T14:21:56;4.13;;;2.90;;
6436;SDS011;3251;53.550;9.918;2023-11-21T14:24:22;3.67;;;2.97;;
6436;SDS011;3251;53.550;9.918;2023-11-21T14:26:49;3.07;;;2.70;;
6436;SDS011;3251;53.550;9.918;2023-11-21T14:29:16;3.73;;;2.80;;
6436;SDS011;3251;53.550;9.918;2023-11-21T14:31:45;4.20;;;2.70;;
6436;SDS011;3251;53.550;9.918;2023-11-21T14:34:11;7.20;;;3.53;;
6436;SDS011;3251;53.550;9.918;2023-11-21T14:36:40;3.53;;;3.23;;
6436;SDS011;3251;53.550;9.918;2023-11-21T14:39:06;2.70;;;2.50;;
6436;SDS011;3251;53.550;9.918;2023-11-21T14:41:36;5.70;;;3.40;;
6436;SDS011;3251;53.550;9.918;2023-11-21T14:44:04;3.83;;;2.70;;
6436;SDS011;3251;53.550;9.918;2023-11-21T14:46:32;3.90;;;2.20;;
6436;SDS011;3251;53.550;9.918;2023-11-21T14:49:00;4.47;;;3.70;;
6436;SDS011;3251;53.550;9.918;2023-11-21T14:51:44;2.43;;;2.23;;
6436;SDS011;3251;53.550;9.918;2023-11-21T14:54:19;7.57;;;3.67;;
6436;SDS011;3251;53.550;9.918;2023-11-21T14:57:00;5.13;;;4.57;;
6436;SDS011;3251;53.550;9.918;2023-11-21T14:59:26;9.57;;;6.30;;
6436;SDS011;3251;53.550;9.918;2023-11-21T15:01:52;3.40;;;3.10;;
6436;SDS011;3251;53.550;9.918;2023-11-21T15:04:20;2.93;;;2.60;;
6436;SDS011;3251;53.550;9.918;2023-11-21T15:07:03;4.80;;;2.57;;
6436;SDS011;3251;53.550;9.918;2023-11-21T15:09:30;9.23;;;3.23;;
6436;SDS011;3251;53.550;9.918;2023-11-21T15:12:01;6.20;;;4.47;;
6436;SDS011;3251;53.550;9.918;2023-11-21T15:14:39;4.70;;;2.43;;
6436;SDS011;3251;53.550;9.918;2023-11-21T15:17:05;2.43;;;2.30;;
6436;SDS011;3251;53.550;9.918;2023-11-21T15:19:32;3.47;;;3.17;;
6436;SDS011;3251;53.550;9.918;2023-11-21T15:22:00;4.03;;;2.60;;
6436;SDS011;3251;53.550;9.918;2023-11-21T15:24:26;5.70;;;3.00;;
6436;SDS011;3251;53.550;9.918;2023-11-21T15:26:52;11.40;;;3.03;;
6436;SDS011;3251;53.550;9.918;2023-11-21T15:29:19;4.30;;;2.17;;
6436;SDS011;3251;53.550;9.918;2023-11-21T15:31:46;3.63;;;2.10;;
6436;SDS011;3251;53.550;9.918;2023-11-21T15:34:14;2.50;;;2.30;;
6436;SDS011;3251;53.550;9.918;2023-11-21T15:36:40;2.80;;;2.30;;
6436;SDS011;3251;53.550;9.918;2023-11-21T15:39:06;3.17;;;2.50;;
6436;SDS011;3251;53.550;9.918;2023-11-21T15:41:39;2.53;;;2.33;;
6436;SDS011;3251;53.550;9.918;2023-11-21T15:44:06;2.87;;;2.70;;
6436;SDS011;3251;53.550;9.918;2023-11-21T15:46:36;3.43;;;2.70;;
6436;SDS011;3251;53.550;9.918;2023-11-21T15:49:04;5.13;;;2.50;;
6436;SDS011;3251;53.550;9.918;2023-11-21T15:51:38;4.83;;;2.27;;
6436;SDS011;3251;53.550;9.918;2023-11-21T15:54:05;2.90;;;2.33;;
6436;SDS011;3251;53.550;9.918;2023-11-21T15:56:32;4.30;;;2.30;;
6436;SDS011;3251;53.550;9.918;2023-11-21T15:59:00;3.40;;;2.50;;
6436;SDS011;3251;53.550;9.918;2023-11-21T16:01:26;4.00;;;2.10;;
6436;SDS011;3251;53.550;9.918;2023-11-21T16:03:52;1.83;;;1.57;;
6436;SDS011;3251;53.550;9.918;2023-11-21T16:06:19;2.27;;;1.90;;
6436;SDS011;3251;53.550;9.918;2023-11-21T16:08:45;3.30;;;3.00;;
6436;SDS011;3251;53.550;9.918;2023-11-21T16:11:13;4.80;;;3.60;;
6436;SDS011;3251;53.550;9.918;2023-11-21T16:13:39;3.10;;;2.80;;
6436;SDS011;3251;53.550;9.918;2023-11-21T16:16:06;2.03;;;1.80;;
6436;SDS011;3251;53.550;9.918;2023-11-21T16:18:32;4.37;;;2.93;;
6436;SDS011;3251;53.550;9.918;2023-11-21T16:20:58;3.30;;;2.70;;
6436;SDS011;3251;53.550;9.918;2023-11-21T16:23:24;3.40;;;3.10;;
6436;SDS011;3251;53.550;9.918;2023-11-21T16:25:51;3.57;;;3.23;;
6436;SDS011;3251;53.550;9.918;2023-11-21T16:28:22;5.87;;;3.33;;
6436;SDS011;3251;53.550;9.918;2023-11-21T16:30:50;3.57;;;2.80;;
6436;SDS011;3251;53.550;9.918;2023-11-21T16:33:16;5.70;;;3.97;;
6436;SDS011;3251;53.550;9.918;2023-11-21T16:35:42;3.30;;;3.00;;
6436;SDS011;3251;53.550;9.918;2023-11-21T16:38:09;3.60;;;3.30;;
6436;SDS011;3251;53.550;9.918;2023-11-21T16:40:35;3.97;;;3.57;;
6436;SDS011;3251;53.550;9.918;2023-11-21T16:43:02;10.60;;;3.40;;
6436;SDS011;3251;53.550;9.918;2023-11-21T16:45:28;8.30;;;3.83;;
6436;SDS011;3251;53.550;9.918;2023-11-21T16:47:54;7.53;;;4.73;;
6436;SDS011;3251;53.550;9.918;2023-11-21T16:50:20;6.57;;;4.40;;
6436;SDS011;3251;53.550;9.918;2023-11-21T16:52:46;8.93;;;4.27;;
6436;SDS011;3251;53.550;9.918;2023-11-21T16:55:12;5.87;;;4.30;;
6436;SDS011;3251;53.550;9.918;2023-11-21T16:57:41;6.40;;;3.80;;
6436;SDS011;3251;53.550;9.918;2023-11-21T17:00:07;4.50;;;4.10;;
6436;SDS011;3251;53.550;9.918;2023-11-21T17:02:37;4.50;;;4.17;;
6436;SDS011;3251;53.550;9.918;2023-11-21T17:05:04;4.60;;;3.50;;
6436;SDS011;3251;53.550;9.918;2023-11-21T17:07:30;8.70;;;4.13;;
6436;SDS011;3251;53.550;9.918;2023-11-21T17:09:57;6.73;;;5.03;;
6436;SDS011;3251;53.550;9.918;2023-11-21T17:12:24;5.63;;;4.83;;
6436;SDS011;3251;53.550;9.918;2023-11-21T17:14:51;6.03;;;4.23;;
6436;SDS011;3251;53.550;9.918;2023-11-21T17:17:17;3.50;;;3.20;;
6436;SDS011;3251;53.550;9.918;2023-11-21T17:19:43;6.90;;;3.93;;
6436;SDS011;3251;53.550;9.918;2023-11-21T17:22:09;7.00;;;4.50;;
6436;SDS011;3251;53.550;9.918;2023-11-21T17:24:35;10.10;;;4.50;;
6436;SDS011;3251;53.550;9.918;2023-11-21T17:27:02;4.13;;;3.83;;
6436;SDS011;3251;53.550;9.918;2023-11-21T17:29:29;4.80;;;3.70;;
6436;SDS011;3251;53.550;9.918;2023-11-21T17:31:55;6.07;;;3.97;;
6436;SDS011;3251;53.550;9.918;2023-11-21T17:34:21;3.00;;;2.80;;
6436;SDS011;3251;53.550;9.918;2023-11-21T17:36:48;10.33;;;2.97;;
6436;SDS011;3251;53.550;9.918;2023-11-21T17:39:14;4.77;;;3.27;;
6436;SDS011;3251;53.550;9.918;2023-11-21T17:41:40;3.37;;;3.07;;
6436;SDS011;3251;53.550;9.918;2023-11-21T17:44:07;3.77;;;2.67;;
6436;SDS011;3251;53.550;9.918;2023-11-21T17:46:33;3.10;;;2.63;;
6436;SDS011;3251;53.550;9.918;2023-11-21T17:48:59;4.30;;;2.70;;
6436;SDS011;3251;53.550;9.918;2023-11-21T17:51:25;3.47;;;3.17;;
6436;SDS011;3251;53.550;9.918;2023-11-21T17:53:51;3.83;;;2.80;;
6436;SDS011;3251;53.550;9.918;2023-11-21T17:56:23;4.30;;;2.30;;
6436;SDS011;3251;53.550;9.918;2023-11-21T17:58:49;2.10;;;1.90;;
6436;SDS011;3251;53.550;9.918;2023-11-21T18:01:19;3.40;;;2.70;;
6436;SDS011;3251;53.550;9.918;2023-11-21T18:03:45;5.50;;;3.13;;
6436;SDS011;3251;53.550;9.918;2023-11-21T18:06:12;2.73;;;2.53;;
6436;SDS011;3251;53.550;9.918;2023-11-21T18:08:38;5.80;;;2.77;;
6436;SDS011;3251;53.550;9.918;2023-11-21T18:11:06;3.97;;;2.77;;
6436;SDS011;3251;53.550;9.918;2023-11-21T18:13:33;3.93;;;2.30;;
6436;SDS011;3251;53.550;9.918;2023-11-21T18:15:59;4.43;;;2.17;;
6436;SDS011;3251;53.550;9.918;2023-11-21T18:18:26;1.80;;;1.33;;
6436;SDS011;3251;53.550;9.918;2023-11-21T18:20:52;3.03;;;2.17;;
6436;SDS011;3251;53.550;9.918;2023-11-21T18:23:18;5.10;;;3.03;;
6436;SDS011;3251;53.550;9.918;2023-11-21T18:25:44;2.67;;;2.37;;
6436;SDS011;3251;53.550;9.918;2023-11-21T18:28:10;2.27;;;2.07;;
6436;SDS011;3251;53.550;9.918;2023-11-21T18:30:37;3.10;;;2.60;;
6436;SDS011;3251;53.550;9.918;2023-11-21T18:33:04;3.80;;;2.87;;
6436;SDS011;3251;53.550;9.918;2023-11-21T18:35:30;3.20;;;2.77;;
6436;SDS011;3251;53.550;9.918;2023-11-21T18:37:57;2.63;;;2.27;;
6436;SDS011;3251;53.550;9.918;2023-11-21T18:40:23;4.43;;;2.57;;
6436;SDS011;3251;53.550;9.918;2023-11-21T18:42:49;2.93;;;2.20;;
6436;SDS011;3251;53.550;9.918;2023-11-21T18:45:15;2.33;;;2.13;;
6436;SDS011;3251;53.550;9.918;2023-11-21T18:47:41;2.40;;;2.20;;
6436;SDS011;3251;53.550;9.918;2023-11-21T18:50:08;4.53;;;2.97;;
6436;SDS011;3251;53.550;9.918;2023-11-21T18:52:35;3.47;;;3.17;;
6436;SDS011;3251;53.550;9.918;2023-11-21T18:55:02;8.20;;;2.50;;
6436;SDS011;3251;53.550;9.918;2023-11-21T18:57:28;5.00;;;3.17;;
6436;SDS011;3251;53.550;9.918;2023-11-21T18:59:56;3.30;;;2.70;;
6436;SDS011;3251;53.550;9.918;2023-11-21T19:02:22;4.23;;;3.80;;
6436;SDS011;3251;53.550;9.918;2023-11-21T19:04:48;5.00;;;3.50;;
6436;SDS011;3251;53.550;9.918;2023-11-21T19:07:14;6.00;;;3.67;;
6436;SDS011;3251;53.550;9.918;2023-11-21T19:09:44;3.53;;;3.27;;
6436;SDS011;3251;53.550;9.918;2023-11-21T19:12:10;2.80;;;2.57;;
6436;SDS011;3251;53.550;9.918;2023-11-21T19:14:38;3.13;;;2.83;;
6436;SDS011;3251;53.550;9.918;2023-11-21T19:17:05;4.27;;;3.63;;
6436;SDS011;3251;53.550;9.918;2023-11-21T19:19:32;3.10;;;2.80;;
6436;SDS011;3251;53.550;9.918;2023-11-21T19:21:58;3.47;;;3.17;;
6436;SDS011;3251;53.550;9.918;2023-11-21T19:24:24;6.40;;;3.00;;
6436;SDS011;3251;53.550;9.918;2023-11-21T19:26:50;9.57;;;4.10;;
6436;SDS011;3251;53.550;9.918;2023-11-21T19:29:16;4.27;;;2.87;;
6436;SDS011;3251;53.550;9.918;2023-11-21T19:31:42;5.10;;;4.60;;
6436;SDS011;3251;53.550;9.918;2023-11-21T19:34:08;4.10;;;3.30;;
6436;SDS011;3251;53.550;9.918;2023-11-21T19:36:38;4.03;;;3.73;;
6436;SDS011;3251;53.550;9.918;2023-11-21T19:39:06;6.80;;;3.17;;
6436;SDS011;3251;53.550;9.918;2023-11-21T19:41:33;3.53;;;3.33;;
6436;SDS011;3251;53.550;9.918;2023-11-21T19:43:59;5.90;;;4.70;;
6436;SDS011;3251;53.550;9.918;2023-11-21T19:46:26;4.83;;;4.30;;
6436;SDS011;3251;53.550;9.918;2023-11-21T19:48:52;10.40;;;3.60;;
6436;SDS011;3251;53.550;9.918;2023-11-21T19:51:19;6.50;;;4.20;;
6436;SDS011;3251;53.550;9.918;2023-11-21T19:53:47;4.37;;;3.80;;
6436;SDS011;3251;53.550;9.918;2023-11-21T19:56:13;5.47;;;4.30;;
6436;SDS011;3251;53.550;9.918;2023-11-21T19:58:39;11.27;;;4.93;;
6436;SDS011;3251;53.550;9.918;2023-11-21T20:01:06;2.87;;;2.60;;
6436;SDS011;3251;53.550;9.918;2023-11-21T20:03:32;9.83;;;4.60;;
6436;SDS011;3251;53.550;9.918;2023-11-21T20:06:00;7.10;;;3.73;;
6436;SDS011;3251;53.550;9.918;2023-11-21T20:08:28;4.93;;;4.50;;
6436;SDS011;3251;53.550;9.918;2023-11-21T20:11:01;7.13;;;4.03;;
6436;SDS011;3251;53.550;9.918;2023-11-21T20:13:27;3.97;;;3.60;;
6436;SDS011;3251;53.550;9.918;2023-11-21T20:15:53;5.93;;;4.30;;
6436;SDS011;3251;53.550;9.918;2023-11-21T20:18:20;3.00;;;2.70;;
6436;SDS011;3251;53.550;9.918;2023-11-21T20:20:46;4.70;;;3.60;;
6436;SDS011;3251;53.550;9.918;2023-11-21T20:23:13;3.37;;;2.83;;
6436;SDS011;3251;53.550;9.918;2023-11-21T20:25:41;3.37;;;3.17;;
6436;SDS011;3251;53.550;9.918;2023-11-21T20:28:07;7.90;;;4.47;;
6436;SDS011;3251;53.550;9.918;2023-11-21T20:30:33;3.00;;;2.10;;
6436;SDS011;3251;53.550;9.918;2023-11-21T20:33:00;5.53;;;2.60;;
6436;SDS011;3251;53.550;9.918;2023-11-21T20:35:31;4.20;;;3.27;;
6436;SDS011;3251;53.550;9.918;2023-11-21T20:38:04;3.40;;;3.03;;
6436;SDS011;3251;53.550;9.918;2023-11-21T20:40:33;11.43;;;3.33;;
6436;SDS011;3251;53.550;9.918;2023-11-21T20:43:00;2.70;;;2.50;;
6436;SDS011;3251;53.550;9.918;2023-11-21T20:45:30;3.43;;;3.10;;
6436;SDS011;3251;53.550;9.918;2023-11-21T20:47:56;4.57;;;3.50;;
6436;SDS011;3251;53.550;9.918;2023-11-21T20:50:22;3.40;;;3.10;;
6436;SDS011;3251;53.550;9.918;2023-11-21T20:52:49;2.30;;;2.13;;
6436;SDS011;3251;53.550;9.918;2023-11-21T20:55:18;3.20;;;2.20;;
6436;SDS011;3251;53.550;9.918;2023-11-21T20:57:45;3.97;;;2.43;;
6436;SDS011;3251;53.550;9.918;2023-11-21T21:00:11;9.33;;;2.37;;
6436;SDS011;3251;53.550;9.918;2023-11-21T21:02:40;3.93;;;2.47;;
6436;SDS011;3251;53.550;9.918;2023-11-21T21:05:06;1.80;;;1.70;;
6436;SDS011;3251;53.550;9.918;2023-11-21T21:07:34;3.30;;;1.80;;
6436;SDS011;3251;53.550;9.918;2023-11-21T21:10:00;2.27;;;2.07;;
6436;SDS011;3251;53.550;9.918;2023-11-21T21:12:27;4.40;;;1.70;;
6436;SDS011;3251;53.550;9.918;2023-11-21T21:14:55;2.10;;;1.77;;
6436;SDS011;3251;53.550;9.918;2023-11-21T21:17:21;2.70;;;2.50;;
6436;SDS011;3251;53.550;9.918;2023-11-21T21:19:47;9.60;;;2.90;;
6436;SDS011;3251;53.550;9.918;2023-11-21T21:22:13;4.10;;;2.70;;
6436;SDS011;3251;53.550;9.918;2023-11-21T21:24:39;2.07;;;1.90;;
6436;SDS011;3251;53.550;9.918;2023-11-21T21:27:06;3.30;;;2.33;;
6436;SDS011;3251;53.550;9.918;2023-11-21T21:29:32;6.07;;;2.83;;
6436;SDS011;3251;53.550;9.918;2023-11-21T21:31:58;3.40;;;2.50;;
6436;SDS011;3251;53.550;9.918;2023-11-21T21:34:24;2.73;;;2.53;;
6436;SDS011;3251;53.550;9.918;2023-11-21T21:36:50;3.20;;;2.60;;
6436;SDS011;3251;53.550;9.918;2023-11-21T21:39:17;3.30;;;2.80;;
6436;SDS011;3251;53.550;9.918;2023-11-21T21:41:45;3.00;;;1.97;;
6436;SDS011;3251;53.550;9.918;2023-11-21T21:44:11;2.60;;;2.40;;
6436;SDS011;3251;53.550;9.918;2023-11-21T21:46:38;2.30;;;2.10;;
6436;SDS011;3251;53.550;9.918;2023-11-21T21:49:05;3.20;;;2.20;;
6436;SDS011;3251;53.550;9.918;2023-11-21T21:51:31;3.40;;;1.80;;
6436;SDS011;3251;53.550;9.918;2023-11-21T21:53:57;4.80;;;3.13;;
6436;SDS011;3251;53.550;9.918;2023-11-21T21:56:24;2.40;;;2.20;;
6436;SDS011;3251;53.550;9.918;2023-11-21T21:58:50;2.17;;;2.07;;
6436;SDS011;3251;53.550;9.918;2023-11-21T22:01:17;2.57;;;2.47;;
6436;SDS011;3251;53.550;9.918;2023-11-21T22:03:44;3.43;;;2.97;;
6436;SDS011;3251;53.550;9.918;2023-11-21T22:06:10;2.33;;;2.23;;
6436;SDS011;3251;53.550;9.918;2023-11-21T22:08:37;2.67;;;2.47;;
6436;SDS011;3251;53.550;9.918;2023-11-21T22:11:03;4.73;;;2.07;;